createdAt,value
2019-02-21T06:16:57.150Z,-0.73
2019-02-21T06:17:57.070Z,-0.59
2019-02-21T06:18:57.057Z,-0.58
2019-02-21T06:19:57.165Z,-0.58
2019-02-21T06:20:57.817Z,-0.70
2019-02-21T06:22:09.715Z,-0.70
2019-02-21T06:22:58.050Z,-0.71
2019-02-21T06:23:57.004Z,-0.85
2019-02-21T06:24:57.012Z,-1.02
2019-02-21T06:25:59.181Z,-0.99
2019-02-21T06:26:56.979Z,-0.96
2019-02-21T06:27:58.545Z,-0.99
2019-02-21T06:28:56.995Z,-0.92
2019-02-21T06:29:56.937Z,-1.00
2019-02-21T06:30:56.943Z,-0.85
2019-02-21T06:31:56.922Z,-0.80
2019-02-21T06:33:04.459Z,-0.81
2019-02-21T06:33:57.938Z,-0.73
2019-02-21T06:34:56.890Z,-0.77
2019-02-21T06:35:56.878Z,-0.70
2019-02-21T06:36:56.868Z,-0.76
2019-02-21T06:37:56.868Z,-0.62
2019-02-21T06:38:56.859Z,-0.55
2019-02-21T06:39:56.871Z,-0.67
2019-02-21T06:40:56.823Z,-0.63
2019-02-21T06:41:59.984Z,-0.67
2019-02-21T06:42:56.803Z,-0.67
2019-02-21T06:43:57.067Z,-0.53
2019-02-21T06:44:56.800Z,-0.55
2019-02-21T06:45:58.029Z,-0.50
2019-02-21T06:46:56.811Z,-0.37
2019-02-21T06:47:56.747Z,-0.47
2019-02-21T06:48:56.749Z,-0.30
2019-02-21T06:49:58.649Z,-0.19
2019-02-21T06:50:56.741Z,-0.23
2019-02-21T06:51:56.706Z,-0.23
2019-02-21T06:52:56.744Z,-0.13
2019-02-21T06:53:56.687Z,-0.27
2019-02-21T06:54:56.674Z,-0.26
2019-02-21T06:55:56.665Z,-0.23
2019-02-21T06:56:56.690Z,-0.24
2019-02-21T06:57:56.649Z,-0.30
2019-02-21T06:58:56.715Z,-0.32
2019-02-21T06:59:56.621Z,-0.37
2019-02-21T07:00:56.613Z,-0.45
2019-02-21T07:01:56.616Z,-0.45
2019-02-21T07:02:56.632Z,-0.58
2019-02-21T07:03:56.581Z,-0.44
2019-02-21T07:04:56.820Z,-0.59
2019-02-21T07:05:56.557Z,-0.58
2019-02-21T07:06:56.979Z,-0.50
2019-02-21T07:07:56.532Z,-0.35
2019-02-21T07:08:56.682Z,-0.38
2019-02-21T07:09:56.518Z,-0.39
2019-02-21T07:11:05.865Z,-0.49
2019-02-21T07:11:57.494Z,-0.47
2019-02-21T07:12:56.514Z,-0.49
2019-02-21T07:13:56.472Z,-0.47
2019-02-21T07:14:56.510Z,-0.45
2019-02-21T07:15:58.446Z,-0.47
2019-02-21T07:16:56.447Z,-0.47
2019-02-21T07:17:56.433Z,-0.49
2019-02-21T07:18:56.414Z,-0.38
2019-02-21T07:19:56.439Z,-0.26
2019-02-21T07:20:56.539Z,-0.27
2019-02-21T07:21:56.390Z,-0.17
2019-02-21T07:22:56.374Z,-0.14
2019-02-21T07:23:56.359Z,-0.14
2019-02-21T07:24:56.363Z,-0.21
2019-02-21T07:25:56.493Z,-0.14
2019-02-21T07:26:56.364Z,-0.17
2019-02-21T07:27:58.274Z,-0.13
2019-02-21T07:28:58.303Z,-0.17
2019-02-21T07:29:56.301Z,-0.20
2019-02-21T07:30:56.299Z,-0.13
2019-02-21T07:31:56.272Z,-0.02
2019-02-21T07:32:56.420Z,0.10
2019-02-21T07:33:56.286Z,0.04
2019-02-21T07:34:56.293Z,0.08
2019-02-21T07:35:56.298Z,0.13
2019-02-21T07:36:56.231Z,0.26
2019-02-21T07:37:56.241Z,0.34
2019-02-21T07:39:08.562Z,0.41
2019-02-21T07:39:56.796Z,0.38
2019-02-21T07:40:56.209Z,0.35
2019-02-21T07:41:56.203Z,0.41
2019-02-21T07:42:58.624Z,0.38
2019-02-21T07:43:56.150Z,0.44
2019-02-21T07:44:59.619Z,0.49
2019-02-21T07:45:56.919Z,0.59
2019-02-21T07:46:56.109Z,0.48
2019-02-21T07:47:56.138Z,0.33
2019-02-21T07:48:56.114Z,0.37
2019-02-21T07:49:56.086Z,0.41
2019-02-21T07:50:56.771Z,0.28
2019-02-21T07:51:58.799Z,0.41
2019-02-21T07:53:02.437Z,0.48
2019-02-21T07:53:57.036Z,0.49
2019-02-21T07:55:01.911Z,0.64
2019-02-21T07:55:57.014Z,0.70
2019-02-21T07:56:56.014Z,0.98
2019-02-21T07:57:56.036Z,1.02
2019-02-21T07:58:57.695Z,1.31
2019-02-21T07:59:55.981Z,1.75
2019-02-21T08:00:55.963Z,2.22
2019-02-21T08:01:55.944Z,2.95
2019-02-21T08:02:56.769Z,3.95
2019-02-21T08:03:55.937Z,4.71
2019-02-21T08:04:55.919Z,5.37
2019-02-21T08:05:55.918Z,5.66
2019-02-21T08:06:55.906Z,5.67
2019-02-21T08:08:04.975Z,5.67
2019-02-21T08:09:04.896Z,6.30
2019-02-21T08:09:55.867Z,6.65
2019-02-21T08:11:06.973Z,7.12
2019-02-21T08:12:05.429Z,7.50
2019-02-21T08:13:04.409Z,7.55
2019-02-21T08:13:55.823Z,7.67
2019-02-21T08:14:56.361Z,7.50
2019-02-21T08:15:55.801Z,7.34
2019-02-21T08:16:56.213Z,7.26
2019-02-21T08:17:55.787Z,6.93
2019-02-21T08:18:56.430Z,6.91
2019-02-21T08:20:07.442Z,6.90
2019-02-21T08:20:57.041Z,6.94
2019-02-21T08:21:55.752Z,6.78
2019-02-21T08:22:55.728Z,6.68
2019-02-21T08:23:55.713Z,6.68
2019-02-21T08:24:56.583Z,6.81
2019-02-21T08:25:55.692Z,6.91
2019-02-21T08:26:56.439Z,7.14
2019-02-21T08:27:55.687Z,7.37
2019-02-21T08:28:55.663Z,7.37
2019-02-21T08:29:55.658Z,7.15
2019-02-21T08:30:57.959Z,6.78
2019-02-21T08:31:55.630Z,6.72
2019-02-21T08:32:55.940Z,6.63
2019-02-21T08:33:58.655Z,6.45
2019-02-21T08:34:55.603Z,6.43
2019-02-21T08:35:57.710Z,6.72
2019-02-21T08:36:55.571Z,6.79
2019-02-21T08:37:55.582Z,6.73
2019-02-21T08:38:55.603Z,6.91
2019-02-21T08:39:57.481Z,6.99
2019-02-21T08:40:57.168Z,7.26
2019-02-21T08:41:55.569Z,7.66
2019-02-21T08:42:55.505Z,8.02
2019-02-21T08:43:57.350Z,8.29
2019-02-21T08:44:55.553Z,8.29
2019-02-21T08:45:57.450Z,8.21
2019-02-21T08:46:55.492Z,8.12
2019-02-21T08:47:55.459Z,7.86
2019-02-21T08:48:55.507Z,8.00
2019-02-21T08:49:55.440Z,8.24
2019-02-21T08:50:55.413Z,8.58
2019-02-21T08:51:55.416Z,8.82
2019-02-21T08:52:55.426Z,9.35
2019-02-21T08:53:55.397Z,9.71
2019-02-21T08:55:00.145Z,10.35
2019-02-21T08:55:56.387Z,9.86
2019-02-21T08:56:55.351Z,9.44
2019-02-21T08:57:55.368Z,9.45
2019-02-21T08:58:55.532Z,9.19
2019-02-21T08:59:55.324Z,9.06
2019-02-21T09:00:55.326Z,9.03
2019-02-21T09:01:55.350Z,8.76
2019-02-21T09:02:55.301Z,8.83
2019-02-21T09:03:55.280Z,9.04
2019-02-21T09:04:55.298Z,9.22
2019-02-21T09:05:55.944Z,9.45
2019-02-21T09:06:55.273Z,9.56
2019-02-21T09:07:55.239Z,9.63
2019-02-21T09:08:55.236Z,9.78
2019-02-21T09:09:55.249Z,9.93
2019-02-21T09:10:55.192Z,10.32
2019-02-21T09:11:55.206Z,10.44
2019-02-21T09:12:55.172Z,10.51
2019-02-21T09:13:55.911Z,10.35
2019-02-21T09:14:55.187Z,10.54
2019-02-21T09:15:55.923Z,10.25
2019-02-21T09:16:55.192Z,10.16
2019-02-21T09:17:55.117Z,10.06
2019-02-21T09:18:55.106Z,10.29
2019-02-21T09:19:55.099Z,10.38
2019-02-21T09:20:55.136Z,10.35
2019-02-21T09:21:55.078Z,10.83
2019-02-21T09:22:55.059Z,10.49
2019-02-21T09:23:56.655Z,10.44
2019-02-21T09:24:55.106Z,10.25
2019-02-21T09:25:55.045Z,10.28
2019-02-21T09:26:57.088Z,10.54
2019-02-21T09:27:55.007Z,10.44
2019-02-21T09:28:55.006Z,10.98
2019-02-21T09:29:54.987Z,10.87
2019-02-21T09:30:54.971Z,10.55
2019-02-21T09:31:55.156Z,10.16
2019-02-21T09:32:54.988Z,10.10
2019-02-21T09:33:54.945Z,10.24
2019-02-21T09:34:54.935Z,10.78
2019-02-21T09:35:56.762Z,10.81
2019-02-21T09:36:54.995Z,10.43
2019-02-21T09:37:54.927Z,10.38
2019-02-21T09:38:56.421Z,10.47
2019-02-21T09:39:54.889Z,10.86
2019-02-21T09:40:55.076Z,10.60
2019-02-21T09:41:55.872Z,10.83
2019-02-21T09:42:55.413Z,11.03
2019-02-21T09:43:54.869Z,10.81
2019-02-21T09:44:54.844Z,10.29
2019-02-21T09:45:54.818Z,11.09
2019-02-21T09:46:54.967Z,10.88
2019-02-21T09:47:54.792Z,10.24
2019-02-21T09:48:54.780Z,10.32
2019-02-21T09:49:56.492Z,10.80
2019-02-21T09:50:54.764Z,10.42
2019-02-21T09:51:54.744Z,10.39
2019-02-21T09:52:54.932Z,10.28
2019-02-21T09:53:54.725Z,10.43
2019-02-21T09:54:54.721Z,10.47
2019-02-21T09:55:54.719Z,10.65
2019-02-21T09:56:54.694Z,10.68
2019-02-21T09:57:54.706Z,10.57
2019-02-21T09:58:54.715Z,10.28
2019-02-21T09:59:54.670Z,10.02
2019-02-21T10:00:54.664Z,9.83
2019-02-21T10:01:54.643Z,10.36
2019-02-21T10:02:56.720Z,10.57
2019-02-21T10:03:57.204Z,10.13
2019-02-21T10:05:04.553Z,10.02
2019-02-21T10:05:55.629Z,10.39
2019-02-21T10:06:54.585Z,10.28
2019-02-21T10:07:55.404Z,10.43
2019-02-21T10:08:54.554Z,10.73
2019-02-21T10:09:54.563Z,10.99
2019-02-21T10:10:54.540Z,10.81
2019-02-21T10:11:54.570Z,10.86
2019-02-21T10:12:54.533Z,10.47
2019-02-21T10:13:54.504Z,10.20
2019-02-21T10:14:54.497Z,10.38
2019-02-21T10:15:54.508Z,10.35
2019-02-21T10:16:54.466Z,10.65
2019-02-21T10:17:54.500Z,10.72
2019-02-21T10:18:54.445Z,10.98
2019-02-21T10:19:54.436Z,10.52
2019-02-21T10:20:54.422Z,10.34
2019-02-21T10:21:54.425Z,10.43
2019-02-21T10:22:54.402Z,11.08
2019-02-21T10:23:56.570Z,11.09
2019-02-21T10:24:56.881Z,11.42
2019-02-21T10:25:54.370Z,11.16
2019-02-21T10:26:54.358Z,11.13
2019-02-21T10:27:54.417Z,11.06
2019-02-21T10:28:54.341Z,11.17
2019-02-21T10:29:54.365Z,11.20
2019-02-21T10:30:54.317Z,11.59
2019-02-21T10:31:54.302Z,11.01
2019-02-21T10:32:54.291Z,10.51
2019-02-21T10:33:54.303Z,10.46
2019-02-21T10:34:54.304Z,10.39
2019-02-21T10:35:54.264Z,10.39
2019-02-21T10:36:54.247Z,10.43
2019-02-21T10:37:54.236Z,10.32
2019-02-21T10:38:54.224Z,10.16
2019-02-21T10:39:54.232Z,10.31
2019-02-21T10:40:54.240Z,10.54
2019-02-21T10:41:54.190Z,10.49
2019-02-21T10:42:54.194Z,10.32
2019-02-21T10:43:54.167Z,10.66
2019-02-21T10:44:54.159Z,11.12
2019-02-21T10:45:54.176Z,10.94
2019-02-21T10:46:54.213Z,11.59
2019-02-21T10:47:54.157Z,11.56
2019-02-21T10:48:54.127Z,11.67
2019-02-21T10:49:54.105Z,12.61
2019-02-21T10:50:54.091Z,12.85
2019-02-21T10:51:54.075Z,12.12
2019-02-21T10:52:54.102Z,11.78
2019-02-21T10:53:54.064Z,11.33
2019-02-21T10:54:55.080Z,11.30
2019-02-21T10:55:54.046Z,10.99
2019-02-21T10:56:54.044Z,11.12
2019-02-21T10:57:54.048Z,11.24
2019-02-21T10:58:53.998Z,11.66
2019-02-21T10:59:53.982Z,11.56
2019-02-21T11:00:53.975Z,11.75
2019-02-21T11:01:53.960Z,12.19
2019-02-21T11:02:53.976Z,12.51
2019-02-21T11:03:53.975Z,12.48
2019-02-21T11:04:55.109Z,12.38
2019-02-21T11:05:53.922Z,11.56
2019-02-21T11:06:53.912Z,10.91
2019-02-21T11:07:53.937Z,10.83
2019-02-21T11:08:53.887Z,10.88
2019-02-21T11:09:53.877Z,11.12
2019-02-21T11:10:53.863Z,11.08
2019-02-21T11:11:53.854Z,11.20
2019-02-21T11:12:53.879Z,11.23
2019-02-21T11:13:53.854Z,11.46
2019-02-21T11:14:53.825Z,11.60
2019-02-21T11:15:53.807Z,12.05
2019-02-21T11:16:53.811Z,11.60
2019-02-21T11:17:53.790Z,11.41
2019-02-21T11:18:53.816Z,11.70
2019-02-21T11:19:53.761Z,12.26
2019-02-21T11:20:53.771Z,12.16
2019-02-21T11:21:53.751Z,12.12
2019-02-21T11:22:53.735Z,11.33
2019-02-21T11:23:53.729Z,11.51
2019-02-21T11:24:53.884Z,11.90
2019-02-21T11:25:53.726Z,12.12
2019-02-21T11:26:53.698Z,11.69
2019-02-21T11:27:53.704Z,11.53
2019-02-21T11:28:53.674Z,11.84
2019-02-21T11:29:53.670Z,11.44
2019-02-21T11:30:53.702Z,11.05
2019-02-21T11:31:53.657Z,11.02
2019-02-21T11:32:53.632Z,11.21
2019-02-21T11:33:53.621Z,11.30
2019-02-21T11:34:53.624Z,11.30
2019-02-21T11:35:53.592Z,11.05
2019-02-21T11:36:53.636Z,11.20
2019-02-21T11:37:53.619Z,11.66
2019-02-21T11:38:53.625Z,11.16
2019-02-21T11:39:53.622Z,10.90
2019-02-21T11:40:53.556Z,11.12
2019-02-21T11:41:53.572Z,11.23
2019-02-21T11:42:53.526Z,11.01
2019-02-21T11:43:53.555Z,10.86
2019-02-21T11:44:53.501Z,11.05
2019-02-21T11:45:57.217Z,10.98
2019-02-21T11:46:53.484Z,10.90
2019-02-21T11:47:53.476Z,10.76
2019-02-21T11:48:53.496Z,10.90
2019-02-21T11:49:53.851Z,11.19
2019-02-21T11:50:53.440Z,10.93
2019-02-21T11:51:54.449Z,11.23
2019-02-21T11:52:53.427Z,11.20
2019-02-21T11:53:53.414Z,11.12
2019-02-21T11:54:53.388Z,11.12
2019-02-21T11:55:53.471Z,11.51
2019-02-21T11:56:53.382Z,11.36
2019-02-21T11:57:53.368Z,11.08
2019-02-21T11:58:53.358Z,10.78
2019-02-21T11:59:53.331Z,10.95
2019-02-21T12:00:53.371Z,10.72
2019-02-21T12:01:53.310Z,10.87
2019-02-21T12:02:53.334Z,10.91
2019-02-21T12:03:53.342Z,10.90
2019-02-21T12:04:53.282Z,11.20
2019-02-21T12:05:53.277Z,11.66
2019-02-21T12:06:53.319Z,11.82
2019-02-21T12:07:53.265Z,11.70
2019-02-21T12:08:53.273Z,11.46
2019-02-21T12:09:53.225Z,11.13
2019-02-21T12:10:53.256Z,11.35
2019-02-21T12:11:53.217Z,11.39
2019-02-21T12:12:53.204Z,11.08
2019-02-21T12:13:53.200Z,11.20
2019-02-21T12:14:53.174Z,11.02
2019-02-21T12:15:53.178Z,10.83
2019-02-21T12:16:53.194Z,10.63
2019-02-21T12:17:53.135Z,11.11
2019-02-21T12:18:53.142Z,11.06
2019-02-21T12:19:53.110Z,11.30
2019-02-21T12:20:53.106Z,11.51
2019-02-21T12:21:59.178Z,11.51
2019-02-21T12:22:54.135Z,11.20
2019-02-21T12:23:53.062Z,11.03
2019-02-21T12:24:53.060Z,10.98
2019-02-21T12:25:53.062Z,11.13
2019-02-21T12:26:53.896Z,10.90
2019-02-21T12:27:53.042Z,11.19
2019-02-21T12:28:53.011Z,10.93
2019-02-21T12:29:53.005Z,10.72
2019-02-21T12:30:53.004Z,10.84
2019-02-21T12:31:53.082Z,10.94
2019-02-21T12:32:53.023Z,10.54
2019-02-21T12:33:52.958Z,10.66
2019-02-21T12:34:52.986Z,10.63
2019-02-21T12:35:52.940Z,10.99
2019-02-21T12:36:52.935Z,11.17
2019-02-21T12:37:52.924Z,11.44
2019-02-21T12:38:52.905Z,11.57
2019-02-21T12:39:53.883Z,11.66
2019-02-21T12:40:52.928Z,11.28
2019-02-21T12:41:52.866Z,11.17
2019-02-21T12:42:52.864Z,11.78
2019-02-21T12:43:52.849Z,11.53
2019-02-21T12:44:52.864Z,11.27
2019-02-21T12:45:52.830Z,11.53
2019-02-21T12:46:52.866Z,11.72
2019-02-21T12:47:54.044Z,11.75
2019-02-21T12:48:52.809Z,11.82
2019-02-21T12:49:55.350Z,11.44
2019-02-21T12:50:52.773Z,11.56
2019-02-21T12:51:52.758Z,11.79
2019-02-21T12:52:52.967Z,11.79
2019-02-21T12:53:52.727Z,11.51
2019-02-21T12:54:52.728Z,11.16
2019-02-21T12:55:52.715Z,11.33
2019-02-21T12:56:52.704Z,11.42
2019-02-21T12:57:52.689Z,11.35
2019-02-21T12:58:52.749Z,11.03
2019-02-21T12:59:52.676Z,10.91
2019-02-21T13:00:52.667Z,10.98
2019-02-21T13:01:52.647Z,10.34
2019-02-21T13:02:52.650Z,10.54
2019-02-21T13:03:52.623Z,10.78
2019-02-21T13:04:52.687Z,10.54
2019-02-21T13:05:52.614Z,10.94
2019-02-21T13:06:52.593Z,11.21
2019-02-21T13:07:52.583Z,11.57
2019-02-21T13:08:52.579Z,11.48
2019-02-21T13:09:52.564Z,11.59
2019-02-21T13:10:52.605Z,11.16
2019-02-21T13:11:52.545Z,11.09
2019-02-21T13:12:52.521Z,11.11
2019-02-21T13:13:52.524Z,11.20
2019-02-21T13:14:52.511Z,11.20
2019-02-21T13:15:52.486Z,11.24
2019-02-21T13:16:52.524Z,11.63
2019-02-21T13:17:52.474Z,12.01
2019-02-21T13:18:52.454Z,11.28
2019-02-21T13:19:52.446Z,11.08
2019-02-21T13:20:52.438Z,11.49
2019-02-21T13:21:52.427Z,11.35
2019-02-21T13:22:52.450Z,11.20
2019-02-21T13:23:52.463Z,11.27
2019-02-21T13:24:52.397Z,11.19
2019-02-21T13:25:52.378Z,11.19
2019-02-21T13:26:52.401Z,11.42
2019-02-21T13:27:52.549Z,11.31
2019-02-21T13:28:52.342Z,11.11
2019-02-21T13:29:54.563Z,11.13
2019-02-21T13:30:52.332Z,11.20
2019-02-21T13:31:52.457Z,10.94
2019-02-21T13:32:52.329Z,11.08
2019-02-21T13:33:52.282Z,11.28
2019-02-21T13:34:52.877Z,11.19
2019-02-21T13:35:53.242Z,11.06
2019-02-21T13:36:52.260Z,10.88
2019-02-21T13:37:52.254Z,10.75
2019-02-21T13:38:52.233Z,10.84
2019-02-21T13:39:52.250Z,10.78
2019-02-21T13:40:52.209Z,11.16
2019-02-21T13:41:52.257Z,11.08
2019-02-21T13:42:52.186Z,11.20
2019-02-21T13:43:52.190Z,10.98
2019-02-21T13:44:52.167Z,11.35
2019-02-21T13:45:52.154Z,11.11
2019-02-21T13:46:52.871Z,11.11
2019-02-21T13:47:52.187Z,10.99
2019-02-21T13:48:52.122Z,10.83
2019-02-21T13:49:52.120Z,10.99
2019-02-21T13:50:52.111Z,11.16
2019-02-21T13:51:52.112Z,10.98
2019-02-21T13:52:52.088Z,11.08
2019-02-21T13:53:52.552Z,11.41
2019-02-21T13:54:52.052Z,11.12
2019-02-21T13:55:52.210Z,10.76
2019-02-21T13:56:52.026Z,10.38
2019-02-21T13:57:52.067Z,10.54
2019-02-21T13:58:52.003Z,10.83
2019-02-21T13:59:52.026Z,10.86
2019-02-21T14:00:51.984Z,10.55
2019-02-21T14:01:51.984Z,10.60
2019-02-21T14:02:51.962Z,10.29
2019-02-21T14:03:51.992Z,9.96
2019-02-21T14:04:51.936Z,9.86
2019-02-21T14:05:51.958Z,9.88
2019-02-21T14:06:51.917Z,10.07
2019-02-21T14:07:51.901Z,10.24
2019-02-21T14:08:51.899Z,10.06
2019-02-21T14:09:51.926Z,9.99
2019-02-21T14:10:51.869Z,9.67
2019-02-21T14:11:51.855Z,9.63
2019-02-21T14:12:51.865Z,10.06
2019-02-21T14:13:51.853Z,10.06
2019-02-21T14:14:51.884Z,10.06
2019-02-21T14:15:51.884Z,10.32
2019-02-21T14:16:51.805Z,10.29
2019-02-21T14:17:51.794Z,10.43
2019-02-21T14:18:51.781Z,10.35
2019-02-21T14:19:53.081Z,10.31
2019-02-21T14:20:51.819Z,10.54
2019-02-21T14:21:51.869Z,10.52
2019-02-21T14:22:51.758Z,10.34
2019-02-21T14:23:51.733Z,10.18
2019-02-21T14:24:51.730Z,10.13
2019-02-21T14:25:51.701Z,9.88
2019-02-21T14:26:51.717Z,10.13
2019-02-21T14:27:51.715Z,10.39
2019-02-21T14:28:51.679Z,10.24
2019-02-21T14:29:51.655Z,9.88
2019-02-21T14:30:51.683Z,9.65
2019-02-21T14:31:51.636Z,9.62
2019-02-21T14:32:51.680Z,9.74
2019-02-21T14:33:51.973Z,9.77
2019-02-21T14:34:51.603Z,9.98
2019-02-21T14:35:51.626Z,10.04
2019-02-21T14:36:51.574Z,10.10
2019-02-21T14:37:51.567Z,10.10
2019-02-21T14:38:51.593Z,10.16
2019-02-21T14:39:51.541Z,9.98
2019-02-21T14:40:51.528Z,9.77
2019-02-21T14:41:51.569Z,9.96
2019-02-21T14:42:51.509Z,9.88
2019-02-21T14:43:51.494Z,9.99
2019-02-21T14:44:51.481Z,10.36
2019-02-21T14:45:51.498Z,10.34
2019-02-21T14:46:51.458Z,10.09
2019-02-21T14:47:51.487Z,10.13
2019-02-21T14:48:51.447Z,9.92
2019-02-21T14:49:51.429Z,9.78
2019-02-21T14:50:51.419Z,9.88
2019-02-21T14:51:51.409Z,9.89
2019-02-21T14:52:51.405Z,9.67
2019-02-21T14:53:51.435Z,9.58
2019-02-21T14:54:51.367Z,9.63
2019-02-21T14:55:51.357Z,9.68
2019-02-21T14:56:51.347Z,9.53
2019-02-21T14:57:51.339Z,9.23
2019-02-21T14:58:51.322Z,9.17
2019-02-21T14:59:51.367Z,9.30
2019-02-21T15:00:51.309Z,9.22
2019-02-21T15:01:51.299Z,9.10
2019-02-21T15:02:51.313Z,9.13
2019-02-21T15:03:51.273Z,8.85
2019-02-21T15:04:51.427Z,8.75
2019-02-21T15:05:51.255Z,8.60
2019-02-21T15:06:51.245Z,8.61
2019-02-21T15:07:51.261Z,8.60
2019-02-21T15:08:51.260Z,8.46
2019-02-21T15:09:51.209Z,8.39
2019-02-21T15:10:52.666Z,8.20
2019-02-21T15:11:51.179Z,8.17
2019-02-21T15:12:51.179Z,8.00
2019-02-21T15:13:51.162Z,7.84
2019-02-21T15:14:51.157Z,7.52
2019-02-21T15:15:51.151Z,7.47
2019-02-21T15:16:51.175Z,7.15
2019-02-21T15:17:51.158Z,7.14
2019-02-21T15:18:51.119Z,7.11
2019-02-21T15:19:51.111Z,6.94
2019-02-21T15:20:51.085Z,6.86
2019-02-21T15:21:51.118Z,6.69
2019-02-21T15:22:53.735Z,6.42
2019-02-21T15:23:51.054Z,6.39
2019-02-21T15:24:51.067Z,6.35
2019-02-21T15:25:51.077Z,6.06
2019-02-21T15:26:51.023Z,6.10
2019-02-21T15:27:51.007Z,6.14
2019-02-21T15:28:51.002Z,6.16
2019-02-21T15:29:50.991Z,6.19
2019-02-21T15:30:51.081Z,6.14
2019-02-21T15:31:50.984Z,6.08
2019-02-21T15:32:50.956Z,5.74
2019-02-21T15:33:50.944Z,5.67
2019-02-21T15:34:50.946Z,5.58
2019-02-21T15:35:50.925Z,5.51
2019-02-21T15:36:50.949Z,5.37
2019-02-21T15:37:50.927Z,5.29
2019-02-21T15:38:50.904Z,5.48
2019-02-21T15:39:50.877Z,5.55
2019-02-21T15:40:50.868Z,5.58
2019-02-21T15:41:50.869Z,5.63
2019-02-21T15:42:52.678Z,5.40
2019-02-21T15:43:50.831Z,5.22
2019-02-21T15:44:50.870Z,5.06
2019-02-21T15:45:50.809Z,5.06
2019-02-21T15:46:50.802Z,4.87
2019-02-21T15:47:50.825Z,4.90
2019-02-21T15:48:50.821Z,4.91
2019-02-21T15:49:50.763Z,4.80
2019-02-21T15:50:50.768Z,4.84
2019-02-21T15:51:50.746Z,4.69
2019-02-21T15:52:50.752Z,4.59
2019-02-21T15:53:50.731Z,4.64
2019-02-21T15:54:50.752Z,4.65
2019-02-21T15:55:50.703Z,4.59
2019-02-21T15:56:50.690Z,4.51
2019-02-21T15:57:50.677Z,4.53
2019-02-21T15:58:50.680Z,4.43
2019-02-21T15:59:50.695Z,4.46
2019-02-21T16:00:50.659Z,4.42
2019-02-21T16:01:50.637Z,4.43
2019-02-21T16:02:50.642Z,4.36
2019-02-21T16:03:50.622Z,4.46
2019-02-21T16:04:50.601Z,4.46
2019-02-21T16:05:50.629Z,4.46
2019-02-21T16:06:51.622Z,4.34
2019-02-21T16:07:50.594Z,4.28
2019-02-21T16:08:50.560Z,4.21
2019-02-21T16:09:50.549Z,4.20
2019-02-21T16:10:50.533Z,4.18
2019-02-21T16:11:50.586Z,4.29
2019-02-21T16:12:51.206Z,4.44
2019-02-21T16:14:02.026Z,4.50
2019-02-21T16:14:51.492Z,4.65
2019-02-21T16:15:50.490Z,4.71
2019-02-21T16:16:50.506Z,4.57
2019-02-21T16:17:50.536Z,4.43
2019-02-21T16:18:50.458Z,4.35
2019-02-21T16:19:50.438Z,4.29
2019-02-21T16:20:52.842Z,4.24
2019-02-21T16:21:50.462Z,4.46
2019-02-21T16:22:50.439Z,4.53
2019-02-21T16:23:50.393Z,4.59
2019-02-21T16:24:50.386Z,4.79
2019-02-21T16:25:50.541Z,4.87
2019-02-21T16:26:50.358Z,5.02
2019-02-21T16:27:50.347Z,4.87
2019-02-21T16:28:50.376Z,4.75
2019-02-21T16:29:50.329Z,4.74
2019-02-21T16:30:50.312Z,4.91
2019-02-21T16:31:50.365Z,4.88
2019-02-21T16:32:50.295Z,4.80
2019-02-21T16:33:50.280Z,5.06
2019-02-21T16:34:50.278Z,4.99
2019-02-21T16:35:50.264Z,4.86
2019-02-21T16:36:50.251Z,4.64
2019-02-21T16:37:50.307Z,4.88
2019-02-21T16:38:50.236Z,4.72
2019-02-21T16:39:50.217Z,4.68
2019-02-21T16:40:50.207Z,4.71
2019-02-21T16:41:50.197Z,4.80
2019-02-21T16:42:50.198Z,4.65
2019-02-21T16:43:50.228Z,4.54
2019-02-21T16:44:50.164Z,4.54
2019-02-21T16:45:53.690Z,4.72
2019-02-21T16:46:50.140Z,4.77
2019-02-21T16:47:50.130Z,4.80
2019-02-21T16:48:50.132Z,4.75
2019-02-21T16:49:50.158Z,4.71
2019-02-21T16:50:50.093Z,4.77
2019-02-21T16:51:50.112Z,4.68
2019-02-21T16:52:50.077Z,4.38
2019-02-21T16:53:50.073Z,4.31
2019-02-21T16:54:50.057Z,4.17
2019-02-21T16:55:50.080Z,4.20
2019-02-21T16:56:50.031Z,4.16
2019-02-21T16:57:50.047Z,4.07
2019-02-21T16:58:50.013Z,4.11
2019-02-21T16:59:50.003Z,4.14
2019-02-21T17:00:54.693Z,4.07
2019-02-21T17:01:51.007Z,4.07
2019-02-21T17:02:49.964Z,4.04
2019-02-21T17:03:49.990Z,3.92
2019-02-21T17:04:49.962Z,4.07
2019-02-21T17:05:49.931Z,4.10
2019-02-21T17:06:49.919Z,4.11
2019-02-21T17:07:49.918Z,4.31
2019-02-21T17:08:49.899Z,4.61
2019-02-21T17:09:49.926Z,4.36
2019-02-21T17:10:49.905Z,4.39
2019-02-21T17:11:49.869Z,4.10
2019-02-21T17:12:49.855Z,4.00
2019-02-21T17:13:49.844Z,3.86
2019-02-21T17:14:49.848Z,3.78
2019-02-21T17:15:49.856Z,3.68
2019-02-21T17:16:49.830Z,3.60
2019-02-21T17:17:49.804Z,3.59
2019-02-21T17:18:49.786Z,3.70
2019-02-21T17:19:49.777Z,3.98
2019-02-21T17:20:49.806Z,3.78
2019-02-21T17:21:49.756Z,3.74
2019-02-21T17:22:49.762Z,3.67
2019-02-21T17:23:49.737Z,3.62
2019-02-21T17:24:49.724Z,3.70
2019-02-21T17:25:49.714Z,3.72
2019-02-21T17:26:49.736Z,3.67
2019-02-21T17:27:49.698Z,3.63
2019-02-21T17:28:49.698Z,3.53
2019-02-21T17:29:49.744Z,3.60
2019-02-21T17:30:49.659Z,3.68
2019-02-21T17:31:49.642Z,3.75
2019-02-21T17:32:49.658Z,4.02
2019-02-21T17:33:49.627Z,3.75
2019-02-21T17:34:49.619Z,3.75
2019-02-21T17:35:49.647Z,4.07
2019-02-21T17:36:49.589Z,3.82
2019-02-21T17:37:49.622Z,4.04
2019-02-21T17:38:49.574Z,4.35
2019-02-21T17:39:49.561Z,4.13
2019-02-21T17:40:49.564Z,4.07
2019-02-21T17:41:49.534Z,4.38
2019-02-21T17:42:49.524Z,4.39
2019-02-21T17:43:49.564Z,4.29
2019-02-21T17:44:49.512Z,4.21
2019-02-21T17:45:49.499Z,3.95
2019-02-21T17:46:49.517Z,3.93
2019-02-21T17:47:49.473Z,3.95
2019-02-21T17:48:49.458Z,3.99
2019-02-21T17:49:49.491Z,3.81
2019-02-21T17:50:49.443Z,4.00
2019-02-21T17:51:49.427Z,4.18
2019-02-21T17:52:49.440Z,4.20
2019-02-21T17:53:49.406Z,4.02
2019-02-21T17:54:49.394Z,4.35
2019-02-21T17:55:49.420Z,4.67
2019-02-21T17:56:49.379Z,4.59
2019-02-21T17:57:49.365Z,4.47
2019-02-21T17:58:49.351Z,4.06
2019-02-21T17:59:49.342Z,3.81
2019-02-21T18:00:49.331Z,3.50
2019-02-21T18:01:49.354Z,3.41
2019-02-21T18:02:49.312Z,3.16
2019-02-21T18:03:49.293Z,3.23
2019-02-21T18:04:49.318Z,3.17
2019-02-21T18:05:49.284Z,3.08
2019-02-21T18:06:49.262Z,3.05
2019-02-21T18:07:49.264Z,3.05
2019-02-21T18:08:49.276Z,3.04
2019-02-21T18:09:49.234Z,2.90
2019-02-21T18:10:49.226Z,2.87
2019-02-21T18:11:49.211Z,2.87
2019-02-21T18:12:49.197Z,2.98
2019-02-21T18:13:49.220Z,2.97
2019-02-21T18:14:49.180Z,2.89
2019-02-21T18:15:49.207Z,3.30
2019-02-21T18:16:49.153Z,3.25
2019-02-21T18:17:49.142Z,3.15
2019-02-21T18:18:49.151Z,3.19
2019-02-21T18:19:49.198Z,3.10
2019-02-21T18:20:49.112Z,3.20
2019-02-21T18:21:49.144Z,3.22
2019-02-21T18:22:49.092Z,3.35
2019-02-21T18:23:49.103Z,3.19
2019-02-21T18:24:49.075Z,3.10
2019-02-21T18:25:49.089Z,2.86
2019-02-21T18:26:49.055Z,2.89
2019-02-21T18:27:49.041Z,2.89
2019-02-21T18:28:49.021Z,2.76
2019-02-21T18:29:49.021Z,2.86
2019-02-21T18:30:49.015Z,2.81
2019-02-21T18:31:49.024Z,2.84
2019-02-21T18:32:49.056Z,2.83
2019-02-21T18:33:48.975Z,2.71
2019-02-21T18:34:49.602Z,2.65
2019-02-21T18:35:48.985Z,2.63
2019-02-21T18:36:48.937Z,2.74
2019-02-21T18:37:48.932Z,2.58
2019-02-21T18:38:48.939Z,2.48
2019-02-21T18:39:48.906Z,2.56
2019-02-21T18:40:48.944Z,2.45
2019-02-21T18:41:48.883Z,2.68
2019-02-21T18:42:48.878Z,2.76
2019-02-21T18:43:48.866Z,2.87
2019-02-21T18:44:48.868Z,2.89
2019-02-21T18:45:49.781Z,2.77
2019-02-21T18:46:48.872Z,2.61
2019-02-21T18:47:48.824Z,2.79
2019-02-21T18:48:48.807Z,2.90
2019-02-21T18:49:48.804Z,3.16
2019-02-21T18:50:48.795Z,3.15
2019-02-21T18:51:48.781Z,3.13
2019-02-21T18:52:48.801Z,2.83
2019-02-21T18:53:48.751Z,2.87
2019-02-21T18:54:48.744Z,3.01
2019-02-21T18:55:48.784Z,2.89
2019-02-21T18:56:48.744Z,2.83
2019-02-21T18:57:48.710Z,2.87
2019-02-21T18:58:48.714Z,3.19
2019-02-21T18:59:48.689Z,3.05
2019-02-21T19:00:48.677Z,2.92
2019-02-21T19:01:48.703Z,2.92
2019-02-21T19:02:48.658Z,2.87
2019-02-21T19:03:48.669Z,2.83
2019-02-21T19:04:48.635Z,2.86
2019-02-21T19:05:48.623Z,2.87
2019-02-21T19:06:48.646Z,3.05
2019-02-21T19:07:59.622Z,3.15
2019-02-21T19:08:49.596Z,3.13
2019-02-21T19:09:48.631Z,3.35
2019-02-21T19:10:48.746Z,3.50
2019-02-21T19:11:48.604Z,3.15
2019-02-21T19:12:48.559Z,3.07
2019-02-21T19:13:48.557Z,2.77
2019-02-21T19:14:48.525Z,2.80
2019-02-21T19:15:48.552Z,2.90
2019-02-21T19:16:48.517Z,2.80
2019-02-21T19:17:48.560Z,2.76
2019-02-21T19:18:48.528Z,2.81
2019-02-21T19:19:48.483Z,2.69
2019-02-21T19:20:48.467Z,2.66
2019-02-21T19:21:48.450Z,2.63